Terminal Aerodrome Forecast
Issued by NWS Sioux Falls, SD

Home | Current Version | Previous Version | Text Only | Print | Product List | Glossary Off
Versions: 1 2 3 4 5 6 7 8 9 10 11 12 13 14 15 16 17 18 19

000
FTUS43 KFSD 231738
TAFFSD
TAF
KFSD 231738Z 2318/2418 15011G19KT P6SM OVC035
     FM240100 13010KT P6SM OVC025
     FM240300 12009KT P6SM OVC020
     FM240700 11008KT 6SM -SHRA BR OVC015
     FM241100 10011KT 4SM SHRA BR OVC009
     FM241700 12011KT 5SM BR OVC012=

USA.gov is the U.S. government's official web portal to all federal, state and local government web resources and services.